Archival Weather

Chicago O'Hare International

Chicago, Illinois (KORD)

Report from: Wednesday, February 16, 2022 6:51 PM CST
Current time: Saturday, February 4, 2023 10:27 PM CST

Current weather
Weather history
Weather forecast

Present weatherLight rain
Temperature12.2°C (54.0°F)
Dew point8.3°C (46.9°F)
Winds 15 kts (7.7 m/s, 17.3 mph) South-Southwest (200°)
Wind gusts 27 kts (13.9 m/s, 31.1 mph)
Peak wind 27 kts (13.9 m/s, 31.1 mph) South-Southwest (200°) at 18:47
Visibility10 mi. (16.1 km)
Clouds Few clouds 1,900 ft. (579 m)
Ceiling: Overcast 4,000 ft. (1,219 m)
Altimeter29.77 in.Hg (1008 mB)
PrecipitiationTrace
Precip. events Rain ended 6:14 PM
Rain began 6:50 PM
Relative humidity77 %
Density altitude-3 ft. (-1 m)
Sea-level pressure100.8 kPa (1008 mB, 29.78 in.Hg)
Remarks Automated weather observing station with precipitation discriminator
Flight conditions Visual Meteorological Conditions
Raw dataKORD 170051Z 20015G27KT 10SM -RA FEW019 OVC040 12/08 A2977 RMK AO2 PK WND 20027/0047 RAE14B50 SLP083 P0000 T01220083
An unhandled exception has occurred. See browser dev tools for details. Reload 🗙